sensor_id;sensor_type;location;lat;lon;timestamp;pressure;altitude;pressure_sealevel;temperature;humidity
68107;BME280;54892;47.488;19.026;2023-03-04T00:00:23;100063.91;;;3.81;64.10
68107;BME280;54892;47.488;19.026;2023-03-04T00:03:27;100076.94;;;3.81;63.96
68107;BME280;54892;47.488;19.026;2023-03-04T00:06:30;100075.34;;;3.80;64.10
68107;BME280;54892;47.488;19.026;2023-03-04T00:09:33;100079.78;;;3.80;64.34
68107;BME280;54892;47.488;19.026;2023-03-04T00:12:36;100076.59;;;3.71;64.88
68107;BME280;54892;47.488;19.026;2023-03-04T00:15:41;100069.78;;;3.70;62.46
68107;BME280;54892;47.488;19.026;2023-03-04T00:18:44;100065.47;;;3.89;58.39
68107;BME280;54892;47.488;19.026;2023-03-04T00:21:47;100073.19;;;4.09;57.47
68107;BME280;54892;47.488;19.026;2023-03-04T00:24:50;100073.09;;;4.23;57.00
68107;BME280;54892;47.488;19.026;2023-03-04T00:27:54;100066.44;;;4.27;56.36
68107;BME280;54892;47.488;19.026;2023-03-04T00:31:00;100062.41;;;4.31;56.47
68107;BME280;54892;47.488;19.026;2023-03-04T00:34:03;100068.78;;;4.42;56.06
68107;BME280;54892;47.488;19.026;2023-03-04T00:37:06;100067.09;;;4.22;56.83
68107;BME280;54892;47.488;19.026;2023-03-04T00:40:10;100066.41;;;4.02;57.02
68107;BME280;54892;47.488;19.026;2023-03-04T00:43:13;100062.31;;;4.12;56.59
68107;BME280;54892;47.488;19.026;2023-03-04T00:46:18;100058.19;;;3.98;56.89
68107;BME280;54892;47.488;19.026;2023-03-04T00:49:21;100072.50;;;3.89;57.25
68107;BME280;54892;47.488;19.026;2023-03-04T00:52:24;100065.66;;;3.94;57.08
68107;BME280;54892;47.488;19.026;2023-03-04T00:55:28;100054.78;;;3.91;57.08
68107;BME280;54892;47.488;19.026;2023-03-04T00:58:31;100057.81;;;3.94;56.47
68107;BME280;54892;47.488;19.026;2023-03-04T01:01:35;100048.22;;;3.81;59.22
68107;BME280;54892;47.488;19.026;2023-03-04T01:04:38;100048.91;;;3.70;59.28
68107;BME280;54892;47.488;19.026;2023-03-04T01:07:42;100045.09;;;3.66;60.10
68107;BME280;54892;47.488;19.026;2023-03-04T01:10:46;100040.72;;;3.53;62.51
68107;BME280;54892;47.488;19.026;2023-03-04T01:13:49;100032.31;;;3.44;62.42
68107;BME280;54892;47.488;19.026;2023-03-04T01:16:53;100034.78;;;3.32;62.48
68107;BME280;54892;47.488;19.026;2023-03-04T01:19:57;100023.78;;;3.24;63.67
68107;BME280;54892;47.488;19.026;2023-03-04T01:23:00;100034.28;;;2.90;64.72
68107;BME280;54892;47.488;19.026;2023-03-04T01:26:03;100033.69;;;2.81;65.40
68107;BME280;54892;47.488;19.026;2023-03-04T01:29:07;100030.87;;;2.89;65.15
68107;BME280;54892;47.488;19.026;2023-03-04T01:32:11;100025.28;;;2.79;64.39
68107;BME280;54892;47.488;19.026;2023-03-04T01:35:14;100026.87;;;2.60;65.82
68107;BME280;54892;47.488;19.026;2023-03-04T01:38:17;100016.69;;;2.52;66.36
68107;BME280;54892;47.488;19.026;2023-03-04T01:41:22;100018.88;;;2.62;65.01
68107;BME280;54892;47.488;19.026;2023-03-04T01:44:26;100004.66;;;2.57;65.96
68107;BME280;54892;47.488;19.026;2023-03-04T01:47:32;100006.44;;;2.57;64.41
68107;BME280;54892;47.488;19.026;2023-03-04T01:50:35;100007.44;;;2.49;65.63
68107;BME280;54892;47.488;19.026;2023-03-04T01:53:39;100008.03;;;2.58;66.08
68107;BME280;54892;47.488;19.026;2023-03-04T01:56:43;99999.03;;;2.54;66.69
68107;BME280;54892;47.488;19.026;2023-03-04T01:59:47;100001.66;;;2.61;66.10
68107;BME280;54892;47.488;19.026;2023-03-04T02:03:12;99997.25;;;2.34;66.80
68107;BME280;54892;47.488;19.026;2023-03-04T02:06:16;99993.81;;;2.34;66.82
68107;BME280;54892;47.488;19.026;2023-03-04T02:09:19;99992.25;;;2.46;65.70
68107;BME280;54892;47.488;19.026;2023-03-04T02:12:23;99986.81;;;2.21;66.68
68107;BME280;54892;47.488;19.026;2023-03-04T02:15:26;99991.03;;;2.15;66.94
68107;BME280;54892;47.488;19.026;2023-03-04T02:18:31;99981.81;;;2.19;66.19
68107;BME280;54892;47.488;19.026;2023-03-04T02:21:34;99982.41;;;2.21;66.69
68107;BME280;54892;47.488;19.026;2023-03-04T02:24:38;99981.81;;;2.33;66.69
68107;BME280;54892;47.488;19.026;2023-03-04T02:27:44;99970.59;;;2.19;66.37
68107;BME280;54892;47.488;19.026;2023-03-04T02:30:47;99971.81;;;2.09;67.00
68107;BME280;54892;47.488;19.026;2023-03-04T02:33:51;99968.59;;;2.01;67.27
68107;BME280;54892;47.488;19.026;2023-03-04T02:36:55;99960.97;;;1.92;67.55
68107;BME280;54892;47.488;19.026;2023-03-04T02:39:58;99956.94;;;1.76;67.95
68107;BME280;54892;47.488;19.026;2023-03-04T02:43:03;99962.56;;;1.93;67.31
68107;BME280;54892;47.488;19.026;2023-03-04T02:46:07;99960.16;;;1.78;67.92
68107;BME280;54892;47.488;19.026;2023-03-04T02:49:12;99954.53;;;1.88;66.66
68107;BME280;54892;47.488;19.026;2023-03-04T02:52:16;99956.94;;;1.70;67.54
68107;BME280;54892;47.488;19.026;2023-03-04T02:55:20;99945.94;;;1.81;66.33
68107;BME280;54892;47.488;19.026;2023-03-04T02:58:24;99939.72;;;1.69;66.86
68107;BME280;54892;47.488;19.026;2023-03-04T03:01:27;99944.47;;;1.58;66.68
68107;BME280;54892;47.488;19.026;2023-03-04T03:04:31;99933.06;;;1.52;67.14
68107;BME280;54892;47.488;19.026;2023-03-04T03:07:35;99949.69;;;1.58;67.14
68107;BME280;54892;47.488;19.026;2023-03-04T03:10:38;99930.91;;;1.63;67.05
68107;BME280;54892;47.488;19.026;2023-03-04T03:13:43;99938.88;;;1.55;67.12
68107;BME280;54892;47.488;19.026;2023-03-04T03:16:46;99933.69;;;1.68;67.00
68107;BME280;54892;47.488;19.026;2023-03-04T03:19:49;99935.66;;;1.52;67.37
68107;BME280;54892;47.488;19.026;2023-03-04T03:22:52;99928.50;;;1.75;66.25
68107;BME280;54892;47.488;19.026;2023-03-04T03:25:55;99928.09;;;1.71;66.58
68107;BME280;54892;47.488;19.026;2023-03-04T03:29:00;99927.91;;;1.73;66.00
68107;BME280;54892;47.488;19.026;2023-03-04T03:32:03;99926.50;;;1.77;64.88
68107;BME280;54892;47.488;19.026;2023-03-04T03:35:08;99917.69;;;1.71;65.90
68107;BME280;54892;47.488;19.026;2023-03-04T03:38:11;99921.69;;;1.87;64.36
68107;BME280;54892;47.488;19.026;2023-03-04T03:41:14;99924.91;;;1.89;63.87
68107;BME280;54892;47.488;19.026;2023-03-04T03:44:19;99915.09;;;2.05;60.01
68107;BME280;54892;47.488;19.026;2023-03-04T03:47:22;99916.09;;;2.04;61.60
68107;BME280;54892;47.488;19.026;2023-03-04T03:50:26;99913.31;;;2.05;60.96
68107;BME280;54892;47.488;19.026;2023-03-04T03:53:29;99909.50;;;1.94;62.42
68107;BME280;54892;47.488;19.026;2023-03-04T03:56:32;99908.28;;;1.90;62.60
68107;BME280;54892;47.488;19.026;2023-03-04T03:59:37;99918.53;;;1.92;62.55
68107;BME280;54892;47.488;19.026;2023-03-04T04:02:42;99906.91;;;1.74;63.13
68107;BME280;54892;47.488;19.026;2023-03-04T04:05:46;99916.09;;;1.77;62.47
68107;BME280;54892;47.488;19.026;2023-03-04T04:08:49;99916.91;;;2.24;58.44
68107;BME280;54892;47.488;19.026;2023-03-04T04:11:53;99912.50;;;2.05;60.83
68107;BME280;54892;47.488;19.026;2023-03-04T04:14:58;99916.09;;;1.97;62.38
68107;BME280;54892;47.488;19.026;2023-03-04T04:18:01;99913.91;;;1.80;62.75
68107;BME280;54892;47.488;19.026;2023-03-04T04:21:04;99913.50;;;1.83;63.03
68107;BME280;54892;47.488;19.026;2023-03-04T04:24:07;99914.09;;;1.92;61.49
68107;BME280;54892;47.488;19.026;2023-03-04T04:27:11;99908.13;;;1.92;61.94
68107;BME280;54892;47.488;19.026;2023-03-04T04:33:20;99905.69;;;1.83;62.08
68107;BME280;54892;47.488;19.026;2023-03-04T04:36:23;99906.50;;;1.84;63.08
68107;BME280;54892;47.488;19.026;2023-03-04T04:39:26;99904.69;;;1.85;62.31
68107;BME280;54892;47.488;19.026;2023-03-04T04:42:29;99900.47;;;2.04;59.50
68107;BME280;54892;47.488;19.026;2023-03-04T04:45:33;99901.47;;;2.30;58.02
68107;BME280;54892;47.488;19.026;2023-03-04T04:48:37;99896.88;;;2.38;58.07
68107;BME280;54892;47.488;19.026;2023-03-04T04:51:41;99893.22;;;2.59;57.05
68107;BME280;54892;47.488;19.026;2023-03-04T04:54:44;99894.78;;;2.74;56.76
68107;BME280;54892;47.488;19.026;2023-03-04T04:57:47;99891.56;;;2.72;57.34
68107;BME280;54892;47.488;19.026;2023-03-04T05:00:51;99899.38;;;2.72;57.66
68107;BME280;54892;47.488;19.026;2023-03-04T05:03:55;99887.44;;;2.44;59.07
68107;BME280;54892;47.488;19.026;2023-03-04T05:06:59;99891.41;;;2.53;58.80
68107;BME280;54892;47.488;19.026;2023-03-04T05:10:02;99895.34;;;2.83;58.28
68107;BME280;54892;47.488;19.026;2023-03-04T05:13:05;99892.53;;;2.84;58.31
68107;BME280;54892;47.488;19.026;2023-03-04T05:16:08;99896.31;;;2.88;58.38
68107;BME280;54892;47.488;19.026;2023-03-04T05:19:13;99901.75;;;2.87;58.39
68107;BME280;54892;47.488;19.026;2023-03-04T05:22:16;99896.94;;;2.84;58.82
68107;BME280;54892;47.488;19.026;2023-03-04T05:25:19;99907.00;;;2.67;59.69
68107;BME280;54892;47.488;19.026;2023-03-04T05:28:24;99903.44;;;2.54;59.34
68107;BME280;54892;47.488;19.026;2023-03-04T05:31:27;99904.44;;;2.53;59.94
68107;BME280;54892;47.488;19.026;2023-03-04T05:34:32;99915.13;;;2.25;61.11
68107;BME280;54892;47.488;19.026;2023-03-04T05:37:36;99911.69;;;2.31;61.03
68107;BME280;54892;47.488;19.026;2023-03-04T05:40:39;99911.09;;;2.29;61.53
68107;BME280;54892;47.488;19.026;2023-03-04T05:43:43;99919.31;;;2.33;61.21
68107;BME280;54892;47.488;19.026;2023-03-04T05:46:47;99924.50;;;2.53;61.02
68107;BME280;54892;47.488;19.026;2023-03-04T05:49:51;99922.50;;;2.48;61.17
68107;BME280;54892;47.488;19.026;2023-03-04T05:52:55;99912.84;;;2.55;61.19
68107;BME280;54892;47.488;19.026;2023-03-04T05:55:58;99916.81;;;2.78;60.42
68107;BME280;54892;47.488;19.026;2023-03-04T05:59:01;99924.84;;;2.70;60.64
68107;BME280;54892;47.488;19.026;2023-03-04T06:02:05;99932.44;;;2.85;60.72
68107;BME280;54892;47.488;19.026;2023-03-04T06:05:10;99933.88;;;2.74;60.79
68107;BME280;54892;47.488;19.026;2023-03-04T06:08:13;99942.91;;;2.71;60.80
68107;BME280;54892;47.488;19.026;2023-03-04T06:11:16;99941.28;;;2.77;60.87
68107;BME280;54892;47.488;19.026;2023-03-04T06:14:20;99946.22;;;2.99;60.46
68107;BME280;54892;47.488;19.026;2023-03-04T06:17:22;99945.22;;;3.00;60.52
68107;BME280;54892;47.488;19.026;2023-03-04T06:20:27;99953.25;;;2.98;60.85
68107;BME280;54892;47.488;19.026;2023-03-04T06:23:30;99950.63;;;3.05;60.87
68107;BME280;54892;47.488;19.026;2023-03-04T06:26:33;99955.59;;;3.13;60.87
68107;BME280;54892;47.488;19.026;2023-03-04T06:29:36;99954.78;;;3.19;60.52
68107;BME280;54892;47.488;19.026;2023-03-04T06:32:40;99962.50;;;3.40;59.57
68107;BME280;54892;47.488;19.026;2023-03-04T06:35:46;99969.03;;;4.20;58.44
68107;BME280;54892;47.488;19.026;2023-03-04T06:38:49;99962.44;;;5.78;53.48
68107;BME280;54892;47.488;19.026;2023-03-04T06:41:52;99967.41;;;6.93;49.95
68107;BME280;54892;47.488;19.026;2023-03-04T06:44:56;99962.22;;;7.51;48.49
68107;BME280;54892;47.488;19.026;2023-03-04T06:47:58;99959.44;;;8.55;47.06
68107;BME280;54892;47.488;19.026;2023-03-04T06:51:07;99970.84;;;9.55;43.47
68107;BME280;54892;47.488;19.026;2023-03-04T06:54:11;99966.72;;;9.64;42.86
68107;BME280;54892;47.488;19.026;2023-03-04T06:57:14;99977.03;;;9.43;43.07
68107;BME280;54892;47.488;19.026;2023-03-04T07:00:17;99967.91;;;10.11;42.40
68107;BME280;54892;47.488;19.026;2023-03-04T07:03:21;99968.47;;;11.04;40.04
68107;BME280;54892;47.488;19.026;2023-03-04T07:06:26;99960.12;;;12.47;37.80
68107;BME280;54892;47.488;19.026;2023-03-04T07:09:29;99956.47;;;13.03;36.19
68107;BME280;54892;47.488;19.026;2023-03-04T07:12:33;99955.16;;;13.91;35.22
68107;BME280;54892;47.488;19.026;2023-03-04T07:15:36;99958.78;;;14.29;33.55
68107;BME280;54892;47.488;19.026;2023-03-04T07:18:39;99958.97;;;15.30;31.79
68107;BME280;54892;47.488;19.026;2023-03-04T07:21:43;99953.06;;;15.72;30.89
68107;BME280;54892;47.488;19.026;2023-03-04T07:24:48;99961.66;;;15.82;30.55
68107;BME280;54892;47.488;19.026;2023-03-04T07:27:51;99955.56;;;16.29;30.04
68107;BME280;54892;47.488;19.026;2023-03-04T07:30:54;99956.00;;;16.78;28.87
68107;BME280;54892;47.488;19.026;2023-03-04T07:33:58;99972.81;;;17.29;27.55
68107;BME280;54892;47.488;19.026;2023-03-04T07:37:03;99963.34;;;17.23;27.51
68107;BME280;54892;47.488;19.026;2023-03-04T07:40:07;99962.72;;;17.86;26.49
68107;BME280;54892;47.488;19.026;2023-03-04T07:43:10;99966.03;;;17.69;25.05
68107;BME280;54892;47.488;19.026;2023-03-04T07:46:14;99957.13;;;17.50;24.88
68107;BME280;54892;47.488;19.026;2023-03-04T07:49:18;99961.31;;;17.06;25.13
68107;BME280;54892;47.488;19.026;2023-03-04T07:52:22;99949.09;;;16.77;25.48
68107;BME280;54892;47.488;19.026;2023-03-04T07:55:25;99947.69;;;15.38;26.28
68107;BME280;54892;47.488;19.026;2023-03-04T07:58:31;99961.28;;;15.56;26.47
68107;BME280;54892;47.488;19.026;2023-03-04T08:01:35;99961.28;;;16.22;25.25
68107;BME280;54892;47.488;19.026;2023-03-04T08:04:39;99955.41;;;16.81;24.40
68107;BME280;54892;47.488;19.026;2023-03-04T08:07:43;99953.03;;;16.52;24.96
68107;BME280;54892;47.488;19.026;2023-03-04T08:10:47;99961.47;;;15.60;25.26
68107;BME280;54892;47.488;19.026;2023-03-04T08:13:49;99953.19;;;15.04;26.55
68107;BME280;54892;47.488;19.026;2023-03-04T08:16:54;99956.00;;;13.51;27.98
68107;BME280;54892;47.488;19.026;2023-03-04T08:19:57;99952.12;;;12.73;29.44
68107;BME280;54892;47.488;19.026;2023-03-04T08:23:02;99952.22;;;11.75;31.21
68107;BME280;54892;47.488;19.026;2023-03-04T08:26:05;99950.25;;;11.08;32.62
68107;BME280;54892;47.488;19.026;2023-03-04T08:29:10;99939.00;;;10.64;33.76
68107;BME280;54892;47.488;19.026;2023-03-04T08:32:13;99941.94;;;9.98;35.28
68107;BME280;54892;47.488;19.026;2023-03-04T08:35:17;99944.91;;;10.06;35.49
68107;BME280;54892;47.488;19.026;2023-03-04T08:38:21;99938.03;;;9.68;36.29
68107;BME280;54892;47.488;19.026;2023-03-04T08:41:25;99940.44;;;9.42;37.31
68107;BME280;54892;47.488;19.026;2023-03-04T08:44:28;99937.25;;;9.40;37.42
68107;BME280;54892;47.488;19.026;2023-03-04T08:47:31;99939.44;;;9.21;38.51
68107;BME280;54892;47.488;19.026;2023-03-04T08:50:34;99931.41;;;9.10;38.80
68107;BME280;54892;47.488;19.026;2023-03-04T08:53:39;99922.72;;;9.10;39.34
68107;BME280;54892;47.488;19.026;2023-03-04T08:56:42;99942.44;;;9.07;39.87
68107;BME280;54892;47.488;19.026;2023-03-04T08:59:46;99927.44;;;9.08;39.72
68107;BME280;54892;47.488;19.026;2023-03-04T09:02:49;99937.28;;;8.95;40.03
68107;BME280;54892;47.488;19.026;2023-03-04T09:05:52;99933.88;;;9.17;40.17
68107;BME280;54892;47.488;19.026;2023-03-04T09:08:57;99941.41;;;9.08;40.26
68107;BME280;54892;47.488;19.026;2023-03-04T09:12:00;99929.69;;;8.77;40.54
68107;BME280;54892;47.488;19.026;2023-03-04T09:15:04;99936.66;;;8.66;40.69
68107;BME280;54892;47.488;19.026;2023-03-04T09:18:12;99937.88;;;8.58;41.08
68107;BME280;54892;47.488;19.026;2023-03-04T09:21:16;99929.09;;;8.70;41.62
68107;BME280;54892;47.488;19.026;2023-03-04T09:24:21;99939.75;;;8.80;41.29
68107;BME280;54892;47.488;19.026;2023-03-04T09:27:24;99927.34;;;8.58;42.13
68107;BME280;54892;47.488;19.026;2023-03-04T09:30:27;99926.59;;;8.80;42.50
68107;BME280;54892;47.488;19.026;2023-03-04T09:33:31;99920.19;;;8.98;41.95
68107;BME280;54892;47.488;19.026;2023-03-04T09:36:34;99919.34;;;8.92;42.22
68107;BME280;54892;47.488;19.026;2023-03-04T09:39:38;99922.97;;;8.86;42.38
68107;BME280;54892;47.488;19.026;2023-03-04T09:42:42;99909.56;;;8.88;42.48
68107;BME280;54892;47.488;19.026;2023-03-04T09:45:48;99914.28;;;8.86;42.21
68107;BME280;54892;47.488;19.026;2023-03-04T09:48:53;99911.47;;;8.92;42.32
68107;BME280;54892;47.488;19.026;2023-03-04T09:51:58;99905.34;;;8.87;42.38
68107;BME280;54892;47.488;19.026;2023-03-04T09:55:11;99909.19;;;9.01;42.33
68107;BME280;54892;47.488;19.026;2023-03-04T09:58:20;99902.44;;;8.88;42.32
68107;BME280;54892;47.488;19.026;2023-03-04T10:01:30;99906.81;;;8.99;42.49
68107;BME280;54892;47.488;19.026;2023-03-04T10:04:36;99893.75;;;9.10;42.01
68107;BME280;54892;47.488;19.026;2023-03-04T10:07:42;99883.59;;;8.96;42.12
68107;BME280;54892;47.488;19.026;2023-03-04T10:10:50;99890.09;;;8.89;42.47
68107;BME280;54892;47.488;19.026;2023-03-04T10:13:59;99886.34;;;9.07;42.68
68107;BME280;54892;47.488;19.026;2023-03-04T10:17:06;99884.53;;;9.07;42.20
68107;BME280;54892;47.488;19.026;2023-03-04T10:20:14;99874.50;;;9.37;41.89
68107;BME280;54892;47.488;19.026;2023-03-04T10:23:21;99883.25;;;9.42;41.54
68107;BME280;54892;47.488;19.026;2023-03-04T10:26:28;99876.03;;;9.27;41.87
68107;BME280;54892;47.488;19.026;2023-03-04T10:29:34;99885.91;;;9.15;41.85
68107;BME280;54892;47.488;19.026;2023-03-04T10:32:38;99876.91;;;9.11;42.07
68107;BME280;54892;47.488;19.026;2023-03-04T10:35:47;99863.50;;;9.12;41.79
68107;BME280;54892;47.488;19.026;2023-03-04T10:38:53;99876.00;;;9.00;41.91
68107;BME280;54892;47.488;19.026;2023-03-04T10:41:59;99869.97;;;8.99;42.10
68107;BME280;54892;47.488;19.026;2023-03-04T10:45:03;99865.97;;;8.97;42.56
68107;BME280;54892;47.488;19.026;2023-03-04T10:48:21;99877.41;;;9.08;41.16
68107;BME280;54892;47.488;19.026;2023-03-04T10:51:25;99862.59;;;9.29;40.74
68107;BME280;54892;47.488;19.026;2023-03-04T10:54:30;99866.66;;;9.42;39.51
68107;BME280;54892;47.488;19.026;2023-03-04T10:57:35;99856.47;;;9.51;39.79
68107;BME280;54892;47.488;19.026;2023-03-04T11:00:39;99853.03;;;9.50;39.70
68107;BME280;54892;47.488;19.026;2023-03-04T11:03:45;99848.63;;;9.56;39.24
68107;BME280;54892;47.488;19.026;2023-03-04T11:06:49;99846.69;;;9.46;38.61
68107;BME280;54892;47.488;19.026;2023-03-04T11:09:52;99837.53;;;9.54;38.05
68107;BME280;54892;47.488;19.026;2023-03-04T11:13:00;99838.59;;;9.58;38.41
68107;BME280;54892;47.488;19.026;2023-03-04T11:16:04;99848.97;;;9.70;37.26
68107;BME280;54892;47.488;19.026;2023-03-04T11:19:22;99848.41;;;9.63;37.32
68107;BME280;54892;47.488;19.026;2023-03-04T11:22:27;99847.22;;;9.48;38.00
68107;BME280;54892;47.488;19.026;2023-03-04T11:25:32;99838.78;;;9.46;37.40
68107;BME280;54892;47.488;19.026;2023-03-04T11:28:39;99834.47;;;9.35;38.14
68107;BME280;54892;47.488;19.026;2023-03-04T11:31:45;99834.06;;;9.48;37.70
68107;BME280;54892;47.488;19.026;2023-03-04T11:34:50;99826.69;;;9.50;37.72
68107;BME280;54892;47.488;19.026;2023-03-04T11:37:58;99814.62;;;9.59;38.76
68107;BME280;54892;47.488;19.026;2023-03-04T11:41:03;99817.28;;;9.59;38.37
68107;BME280;54892;47.488;19.026;2023-03-04T11:44:10;99818.37;;;9.64;38.33
68107;BME280;54892;47.488;19.026;2023-03-04T11:47:17;99812.28;;;9.63;38.86
68107;BME280;54892;47.488;19.026;2023-03-04T11:50:28;99793.06;;;9.63;39.28
68107;BME280;54892;47.488;19.026;2023-03-04T11:53:39;99802.09;;;9.77;38.88
68107;BME280;54892;47.488;19.026;2023-03-04T11:56:45;99791.34;;;9.89;39.42
68107;BME280;54892;47.488;19.026;2023-03-04T11:59:57;99790.13;;;10.02;38.97
68107;BME280;54892;47.488;19.026;2023-03-04T12:03:13;99778.03;;;10.11;38.45
68107;BME280;54892;47.488;19.026;2023-03-04T12:06:23;99784.88;;;10.12;38.87
68107;BME280;54892;47.488;19.026;2023-03-04T12:09:38;99777.25;;;10.16;39.26
68107;BME280;54892;47.488;19.026;2023-03-04T12:12:46;99773.31;;;10.18;39.57
68107;BME280;54892;47.488;19.026;2023-03-04T12:15:57;99759.34;;;10.18;39.74
68107;BME280;54892;47.488;19.026;2023-03-04T12:19:05;99757.25;;;10.25;40.95
68107;BME280;54892;47.488;19.026;2023-03-04T12:22:14;99765.44;;;10.24;40.09
68107;BME280;54892;47.488;19.026;2023-03-04T12:25:23;99754.88;;;10.29;40.07
68107;BME280;54892;47.488;19.026;2023-03-04T12:28:34;99749.09;;;10.32;39.79
68107;BME280;54892;47.488;19.026;2023-03-04T12:31:42;99752.78;;;10.31;39.65
68107;BME280;54892;47.488;19.026;2023-03-04T12:34:56;99745.94;;;10.35;39.09
68107;BME280;54892;47.488;19.026;2023-03-04T12:41:28;99730.59;;;10.21;39.41
68107;BME280;54892;47.488;19.026;2023-03-04T12:44:37;99733.25;;;10.32;39.27
68107;BME280;54892;47.488;19.026;2023-03-04T12:47:45;99728.53;;;10.34;39.46
68107;BME280;54892;47.488;19.026;2023-03-04T12:50:53;99723.03;;;10.41;39.86
68107;BME280;54892;47.488;19.026;2023-03-04T12:54:02;99718.31;;;10.48;40.11
68107;BME280;54892;47.488;19.026;2023-03-04T12:57:09;99717.50;;;10.53;40.30
68107;BME280;54892;47.488;19.026;2023-03-04T13:00:16;99708.03;;;10.57;40.06
68107;BME280;54892;47.488;19.026;2023-03-04T13:03:27;99723.88;;;10.57;40.36
68107;BME280;54892;47.488;19.026;2023-03-04T13:06:36;99711.22;;;10.79;39.66
68107;BME280;54892;47.488;19.026;2023-03-04T13:09:44;99699.06;;;10.73;39.92
68107;BME280;54892;47.488;19.026;2023-03-04T13:12:49;99703.53;;;10.73;39.69
68107;BME280;54892;47.488;19.026;2023-03-04T13:16:00;99683.47;;;11.03;39.38
68107;BME280;54892;47.488;19.026;2023-03-04T13:19:04;99683.75;;;10.96;38.92
68107;BME280;54892;47.488;19.026;2023-03-04T13:22:49;99677.69;;;10.95;38.53
68107;BME280;54892;47.488;19.026;2023-03-04T13:29:31;99655.50;;;11.12;38.13
68107;BME280;54892;47.488;19.026;2023-03-04T13:32:35;99657.84;;;11.08;37.35
68107;BME280;54892;47.488;19.026;2023-03-04T13:35:48;99656.25;;;11.07;36.83
68107;BME280;54892;47.488;19.026;2023-03-04T13:38:59;99643.87;;;11.13;37.24
68107;BME280;54892;47.488;19.026;2023-03-04T13:42:03;99645.91;;;11.32;34.98
68107;BME280;54892;47.488;19.026;2023-03-04T13:48:32;99636.97;;;11.27;33.55
68107;BME280;54892;47.488;19.026;2023-03-04T13:51:39;99629.31;;;11.21;33.87
68107;BME280;54892;47.488;19.026;2023-03-04T13:54:45;99622.94;;;11.27;34.39
68107;BME280;54892;47.488;19.026;2023-03-04T13:57:48;99621.84;;;11.38;34.32
68107;BME280;54892;47.488;19.026;2023-03-04T14:00:52;99614.97;;;11.42;33.77
68107;BME280;54892;47.488;19.026;2023-03-04T14:03:55;99612.87;;;11.39;31.94
68107;BME280;54892;47.488;19.026;2023-03-04T14:07:01;99612.06;;;11.44;31.14
68107;BME280;54892;47.488;19.026;2023-03-04T14:10:05;99616.84;;;11.42;31.20
68107;BME280;54892;47.488;19.026;2023-03-04T14:13:09;99605.03;;;11.19;31.05
68107;BME280;54892;47.488;19.026;2023-03-04T14:16:17;99604.22;;;11.29;31.30
68107;BME280;54892;47.488;19.026;2023-03-04T14:19:22;99602.34;;;11.29;31.61
68107;BME280;54892;47.488;19.026;2023-03-04T14:22:28;99596.25;;;11.34;31.56
68107;BME280;54892;47.488;19.026;2023-03-04T14:25:33;99592.31;;;11.26;30.94
68107;BME280;54892;47.488;19.026;2023-03-04T14:28:44;99590.69;;;11.35;31.45
68107;BME280;54892;47.488;19.026;2023-03-04T14:31:48;99593.09;;;11.26;31.29
68107;BME280;54892;47.488;19.026;2023-03-04T14:34:53;99595.75;;;11.21;31.63
68107;BME280;54892;47.488;19.026;2023-03-04T14:37:59;99595.47;;;11.28;32.15
68107;BME280;54892;47.488;19.026;2023-03-04T14:41:04;99593.66;;;11.18;32.16
68107;BME280;54892;47.488;19.026;2023-03-04T14:44:10;99598.41;;;11.21;32.93
68107;BME280;54892;47.488;19.026;2023-03-04T14:47:16;99603.69;;;11.16;32.93
68107;BME280;54892;47.488;19.026;2023-03-04T14:50:21;99607.41;;;11.00;33.31
68107;BME280;54892;47.488;19.026;2023-03-04T14:53:28;99611.94;;;10.99;33.25
68107;BME280;54892;47.488;19.026;2023-03-04T14:56:32;99601.88;;;11.01;32.84
68107;BME280;54892;47.488;19.026;2023-03-04T14:59:36;99605.84;;;10.99;32.86
68107;BME280;54892;47.488;19.026;2023-03-04T15:02:40;99614.06;;;10.81;33.37
68107;BME280;54892;47.488;19.026;2023-03-04T15:05:43;99592.69;;;10.78;33.54
68107;BME280;54892;47.488;19.026;2023-03-04T15:08:55;99605.37;;;10.81;34.42
68107;BME280;54892;47.488;19.026;2023-03-04T15:11:59;99600.06;;;10.71;34.81
68107;BME280;54892;47.488;19.026;2023-03-04T15:15:28;99598.25;;;10.56;35.20
68107;BME280;54892;47.488;19.026;2023-03-04T15:18:29;99604.84;;;10.48;35.52
68107;BME280;54892;47.488;19.026;2023-03-04T15:21:36;99597.44;;;10.45;36.29
68107;BME280;54892;47.488;19.026;2023-03-04T15:24:42;99594.00;;;10.49;35.63
68107;BME280;54892;47.488;19.026;2023-03-04T15:27:46;99612.47;;;10.49;35.83
68107;BME280;54892;47.488;19.026;2023-03-04T15:30:51;99613.53;;;10.38;35.51
68107;BME280;54892;47.488;19.026;2023-03-04T15:33:55;99607.75;;;10.41;35.62
68107;BME280;54892;47.488;19.026;2023-03-04T15:36:58;99618.75;;;10.28;36.30
68107;BME280;54892;47.488;19.026;2023-03-04T15:40:03;99595.25;;;9.95;36.91
68107;BME280;54892;47.488;19.026;2023-03-04T15:43:11;99595.75;;;9.92;37.38
68107;BME280;54892;47.488;19.026;2023-03-04T15:46:16;99588.87;;;9.75;37.70
68107;BME280;54892;47.488;19.026;2023-03-04T15:49:20;99597.28;;;9.67;38.09
68107;BME280;54892;47.488;19.026;2023-03-04T15:52:24;99592.50;;;9.59;38.64
68107;BME280;54892;47.488;19.026;2023-03-04T15:55:30;99592.19;;;9.50;38.98
68107;BME280;54892;47.488;19.026;2023-03-04T15:58:36;99592.09;;;9.24;39.53
68107;BME280;54892;47.488;19.026;2023-03-04T16:01:41;99584.22;;;9.29;39.52
68107;BME280;54892;47.488;19.026;2023-03-04T16:04:46;99582.41;;;9.35;39.13
68107;BME280;54892;47.488;19.026;2023-03-04T16:07:51;99577.88;;;9.25;39.48
68107;BME280;54892;47.488;19.026;2023-03-04T16:10:56;99573.03;;;9.02;39.82
68107;BME280;54892;47.488;19.026;2023-03-04T16:13:59;99575.69;;;9.07;39.78
68107;BME280;54892;47.488;19.026;2023-03-04T16:17:03;99573.00;;;8.96;39.67
68107;BME280;54892;47.488;19.026;2023-03-04T16:20:10;99559.78;;;8.86;39.61
68107;BME280;54892;47.488;19.026;2023-03-04T16:23:14;99573.91;;;8.70;39.77
68107;BME280;54892;47.488;19.026;2023-03-04T16:26:22;99576.03;;;8.78;39.77